Disclaimer

Please do not use the information listed here in-flight or in-navigation, as they are not provided to us by the airports but are provided by volunteers, so they might be outdated.

Search


Regions


Airport information page

Radio informations:
LANVEOC TWR - 123.2 MHz
LANVEOC GND - 121.9 MHz
Automatic Terminal Information Service (ATIS) - 137.4 MHz
LANVEOC APP - 120.6 MHz

Airport informations:
Latitude: 48° 16' 54.13" N
Longitude: 004° 26' 42.06" W
Elevation: 287 feet - 87 meters
Operating hours: Remarks
Operating agency: Military
Timezone: UTC+1(+2DT) - Last Sunday in March to last Sunday in October
Fuel: Jet A1+, Jet A1 with icing inhibitor.

100/130 MIL Spec, low lead, aviation gasoline (BLUE)

Runway information:
05/23 - 3635 x 131 feet< - >1108 x 40 meters
13/31 - 2133 x 177 feet< - >650 x 54 meters

Recent METARs:
LFRL 180930Z AUTO 07011KT 030V090 9000 NSC 08/05 Q1018
LFRL 181000Z AUTO 07012KT 9000 NSC 08/05 Q1018
LFRL 181030Z AUTO 08013KT CAVOK 09/05 Q1018

Airport on the map: